Time;durP1;ratioP1;P1;durP2;ratioP2;P2;SDS_P1;SDS_P2;PMS_P1;PMS_P2;Temp;Humidity;BMP_temperature;BMP_pressure;BME280_temperature;BME280_humidity;BME280_pressure;Samples;Min_cycle;Max_cycle;Signal;HPM_P1;HPM_P2
2021/03/29 00:01:45;;;;;;;14.47;13.37;;;8.40;99.90;;;;;;5102146;28;20446;-67
2021/03/29 00:04:12;;;;;;;13.23;12.33;;;8.40;99.90;;;;;;5100165;28;20503;-68
2021/03/29 00:06:40;;;;;;;13.50;12.30;;;8.40;99.90;;;;;;5102010;28;20477;-68
2021/03/29 00:09:08;;;;;;;13.70;12.77;;;8.30;99.90;;;;;;5102121;28;20515;-68
2021/03/29 00:11:36;;;;;;;13.80;12.53;;;8.30;99.90;;;;;;5100295;28;20439;-68
2021/03/29 00:14:03;;;;;;;13.67;12.67;;;8.30;99.90;;;;;;5101094;28;20486;-68
2021/03/29 00:16:30;;;;;;;15.07;13.50;;;8.30;99.90;;;;;;5101675;28;20590;-68
2021/03/29 00:18:56;;;;;;;14.00;12.90;;;8.40;99.90;;;;;;5100440;28;20454;-68
2021/03/29 00:21:24;;;;;;;13.90;12.90;;;8.30;99.90;;;;;;5101112;28;20438;-67
2021/03/29 00:23:51;;;;;;;13.50;12.30;;;8.40;99.90;;;;;;5102171;28;20433;-67
2021/03/29 00:26:18;;;;;;;14.57;13.33;;;8.40;99.90;;;;;;5100200;28;20438;-67
2021/03/29 00:28:44;;;;;;;13.90;12.43;;;8.30;99.90;;;;;;5100893;28;20441;-67
2021/03/29 00:31:11;;;;;;;15.80;12.90;;;8.30;99.90;;;;;;5101947;28;20440;-68
2021/03/29 00:33:39;;;;;;;15.70;14.60;;;8.30;99.90;;;;;;5100440;28;20457;-68
2021/03/29 00:36:08;;;;;;;13.30;12.20;;;8.30;99.90;;;;;;5100359;27;20517;-68
2021/03/29 04:10:41;;;;;;;14.10;13.07;;;6.10;99.90;;;;;;5583606;23;21002;-68
2021/03/29 04:13:10;;;;;;;14.40;13.33;;;6.10;99.90;;;;;;5010086;28;20476;-68
2021/03/29 04:15:37;;;;;;;14.17;12.97;;;6.10;99.90;;;;;;5011419;28;20941;-68
2021/03/29 04:18:04;;;;;;;12.70;11.50;;;6.20;99.90;;;;;;5011695;28;20874;-68
2021/03/29 04:20:30;;;;;;;13.60;12.70;;;6.20;99.90;;;;;;5004924;28;20876;-68
2021/03/29 04:22:57;;;;;;;12.47;11.77;;;6.20;99.90;;;;;;4996964;28;20464;-68
2021/03/29 04:25:24;;;;;;;14.23;13.00;;;6.20;99.90;;;;;;4991950;28;20454;-68
2021/03/29 04:27:51;;;;;;;14.10;13.20;;;6.20;99.90;;;;;;4991813;28;20495;-68
2021/03/29 04:30:18;;;;;;;14.60;13.20;;;6.20;99.90;;;;;;4991775;28;20877;-68
2021/03/29 04:32:46;;;;;;;13.07;12.10;;;6.20;99.90;;;;;;4991387;28;20451;-68
2021/03/29 04:35:14;;;;;;;14.60;13.40;;;6.30;99.90;;;;;;4991845;28;20458;-68
2021/03/29 04:37:40;;;;;;;15.27;13.77;;;6.30;99.90;;;;;;4994805;28;20454;-69
2021/03/29 04:40:07;;;;;;;13.90;12.63;;;6.30;99.90;;;;;;4999813;28;20453;-68
2021/03/29 04:42:33;;;;;;;13.87;13.07;;;6.30;99.90;;;;;;5001045;28;20456;-67
2021/03/29 04:45:00;;;;;;;13.20;12.00;;;6.30;99.90;;;;;;4999835;28;20459;-69
2021/03/29 04:47:27;;;;;;;13.53;12.73;;;6.30;99.90;;;;;;4999637;28;20635;-67
2021/03/29 04:49:53;;;;;;;14.07;12.97;;;6.30;99.90;;;;;;5001542;28;20447;-68
2021/03/29 04:52:19;;;;;;;13.93;13.03;;;6.30;99.90;;;;;;4999307;28;20961;-67
2021/03/29 04:54:45;;;;;;;13.97;13.23;;;6.40;99.90;;;;;;4999995;28;20448;-67
2021/03/29 04:57:11;;;;;;;13.60;12.70;;;6.30;99.90;;;;;;5001287;28;20450;-67
2021/03/29 04:59:38;;;;;;;13.57;12.53;;;6.40;99.90;;;;;;5001870;28;20932;-67
2021/03/29 05:02:05;;;;;;;13.33;12.10;;;6.40;99.90;;;;;;5000047;28;20514;-67
2021/03/29 05:04:31;;;;;;;13.57;12.30;;;6.40;99.90;;;;;;5010399;28;20457;-68
2021/03/29 05:06:57;;;;;;;15.10;13.90;;;6.40;99.90;;;;;;5010860;28;20479;-68
2021/03/29 05:09:23;;;;;;;19.50;12.70;;;6.40;99.90;;;;;;4998949;28;20471;-69
2021/03/29 05:11:50;;;;;;;15.90;14.53;;;6.40;99.90;;;;;;4991253;28;20493;-68
2021/03/29 05:14:17;;;;;;;12.77;11.60;;;6.40;99.90;;;;;;4991405;28;20466;-69
2021/03/29 05:16:44;;;;;;;13.37;12.07;;;6.50;99.90;;;;;;4991186;28;20505;-68
2021/03/29 05:19:11;;;;;;;12.10;11.23;;;6.50;99.90;;;;;;4991113;28;20446;-68
2021/03/29 05:21:38;;;;;;;14.30;13.13;;;6.50;99.90;;;;;;4991415;28;20956;-69
2021/03/29 05:24:05;;;;;;;14.53;13.30;;;6.60;99.90;;;;;;4991053;28;20991;-66
2021/03/29 05:26:31;;;;;;;15.47;13.93;;;6.60;99.90;;;;;;4990846;28;20467;-67
2021/03/29 05:28:57;;;;;;;15.23;13.70;;;6.70;99.90;;;;;;4991259;28;20465;-67
2021/03/29 05:31:23;;;;;;;15.50;14.13;;;6.70;99.90;;;;;;4981981;28;20456;-69
2021/03/29 05:33:50;;;;;;;15.57;14.27;;;6.80;99.90;;;;;;4980791;28;20470;-69
2021/03/29 05:36:21;;;;;;;13.73;12.53;;;6.90;99.90;;;;;;4976430;28;20851;-68
2021/03/29 05:38:47;;;;;;;14.40;13.27;;;6.90;99.90;;;;;;4969883;28;20455;-68
2021/03/29 05:41:15;;;;;;;12.57;11.60;;;7.00;99.90;;;;;;4971499;28;20811;-69
2021/03/29 05:43:42;;;;;;;15.13;13.73;;;7.00;99.90;;;;;;4971590;28;20476;-69
2021/03/29 05:46:09;;;;;;;16.53;15.27;;;6.90;99.90;;;;;;4971573;28;20451;-68
2021/03/29 05:48:35;;;;;;;17.03;15.40;;;6.90;99.90;;;;;;4971269;28;20487;-69
2021/03/29 05:51:02;;;;;;;17.20;14.53;;;6.90;99.90;;;;;;4971003;28;20459;-69
2021/03/29 05:53:29;;;;;;;17.80;16.00;;;7.00;99.90;;;;;;4971275;28;20459;-69
2021/03/29 05:55:56;;;;;;;13.37;12.40;;;7.00;99.90;;;;;;4971639;28;20459;-68
2021/03/29 05:58:43;;;;;;;18.30;13.50;;;7.10;99.90;;;;;;4971374;28;20447;-69
2021/03/29 06:01:10;;;;;;;15.77;12.87;;;7.10;99.90;;;;;;4971617;28;20587;-69
2021/03/29 06:03:38;;;;;;;14.57;13.47;;;7.30;99.90;;;;;;4971294;28;20456;-68
2021/03/29 06:06:17;;;;;;;13.80;12.43;;;7.60;99.90;;;;;;4971099;28;20542;-68
2021/03/29 06:08:45;;;;;;;15.53;12.93;;;7.70;99.90;;;;;;4971347;28;20590;-68
2021/03/29 06:11:22;;;;;;;16.03;14.67;;;7.70;99.90;;;;;;4971158;28;20487;-68
2021/03/29 06:14:05;;;;;;;18.17;15.93;;;7.70;99.90;;;;;;4971251;28;20451;-69
2021/03/29 06:16:31;;;;;;;17.23;15.93;;;7.60;99.90;;;;;;4971297;28;20451;-69
2021/03/29 06:18:57;;;;;;;19.50;15.27;;;7.50;99.90;;;;;;4971818;28;20448;-68
2021/03/29 06:21:23;;;;;;;13.80;12.70;;;7.50;99.90;;;;;;4978262;28;20439;-68
2021/03/29 06:23:58;;;;;;;16.67;13.17;;;7.50;99.90;;;;;;4979375;28;20521;-68
2021/03/29 06:26:28;;;;;;;14.80;13.37;;;7.70;99.90;;;;;;4978910;28;20934;-68
2021/03/29 06:28:55;;;;;;;13.70;12.70;;;7.90;99.90;;;;;;4978996;28;20518;-69
2021/03/29 06:31:27;;;;;;;12.53;11.73;;;8.00;99.90;;;;;;4980728;28;20448;-69
2021/03/29 06:33:54;;;;;;;14.37;12.90;;;8.20;99.90;;;;;;4980332;28;20443;-69
2021/03/29 06:36:28;;;;;;;14.23;13.00;;;8.30;99.90;;;;;;4978290;28;20450;-69
2021/03/29 06:39:08;;;;;;;12.23;11.10;;;8.50;99.90;;;;;;4978949;28;20435;-69
2021/03/29 06:41:35;;;;;;;12.17;11.27;;;8.70;99.90;;;;;;4980041;28;20505;-69
2021/03/29 06:44:01;;;;;;;11.83;10.83;;;8.90;99.90;;;;;;4981222;28;20447;-68
2021/03/29 06:46:29;;;;;;;21.90;12.93;;;8.90;99.90;;;;;;4986790;28;20494;-67
2021/03/29 06:48:57;;;;;;;14.03;12.60;;;8.80;99.90;;;;;;4990588;28;20497;-69
2021/03/29 06:51:25;;;;;;;14.57;13.47;;;8.90;99.90;;;;;;4990700;28;20451;-69
2021/03/29 06:53:57;;;;;;;13.83;12.63;;;8.90;99.90;;;;;;4990511;28;20542;-69
2021/03/29 06:56:32;;;;;;;16.73;11.67;;;9.00;99.90;;;;;;4989675;28;20450;-69
2021/03/29 06:59:10;;;;;;;13.70;12.60;;;8.90;99.90;;;;;;4990532;28;20795;-69
2021/03/29 07:01:37;;;;;;;14.30;12.87;;;9.00;99.90;;;;;;4992553;28;20454;-69
2021/03/29 07:04:05;;;;;;;15.77;14.50;;;9.00;99.90;;;;;;4993840;28;20454;-69
2021/03/29 07:06:34;;;;;;;18.30;16.47;;;9.00;99.90;;;;;;4993307;28;20454;-69
2021/03/29 07:09:04;;;;;;;15.70;14.27;;;8.90;99.90;;;;;;4993464;28;20490;-69
2021/03/29 07:11:30;;;;;;;18.27;15.97;;;9.00;99.90;;;;;;4993271;28;20478;-69
2021/03/29 07:13:57;;;;;;;17.13;15.43;;;9.30;99.90;;;;;;4993914;28;20454;-70
2021/03/29 07:16:26;;;;;;;20.60;15.47;;;9.50;99.90;;;;;;4993685;28;20459;-69
2021/03/29 07:18:55;;;;;;;15.17;13.57;;;9.70;99.90;;;;;;4993364;28;20958;-69
2021/03/29 07:21:22;;;;;;;12.30;11.67;;;10.60;99.70;;;;;;4993462;28;20529;-69
2021/03/29 07:23:48;;;;;;;14.33;12.93;;;11.30;96.10;;;;;;4993500;28;20645;-69
2021/03/29 07:26:23;;;;;;;14.10;13.00;;;11.60;95.60;;;;;;4993376;28;20459;-69
2021/03/29 07:28:50;;;;;;;12.97;12.10;;;11.90;94.40;;;;;;4993452;28;21132;-69
2021/03/29 07:31:37;;;;;;;14.33;12.93;;;11.90;94.00;;;;;;4993534;28;20455;-69
2021/03/29 07:34:04;;;;;;;13.63;12.40;;;12.50;93.20;;;;;;4993186;28;20956;-69
2021/03/29 07:36:41;;;;;;;13.50;12.40;;;12.90;92.40;;;;;;4993175;28;20451;-69
2021/03/29 07:39:08;;;;;;;15.00;13.47;;;12.90;91.60;;;;;;4993073;28;20564;-69
2021/03/29 07:41:36;;;;;;;13.80;12.30;;;12.60;92.00;;;;;;4992976;28;20460;-69
2021/03/29 07:44:17;;;;;;;12.50;11.70;;;12.50;91.90;;;;;;4992962;28;20455;-70
2021/03/29 07:46:49;;;;;;;14.20;13.30;;;12.70;92.00;;;;;;4993583;28;20455;-71
2021/03/29 07:49:41;;;;;;;15.93;14.57;;;12.90;91.70;;;;;;4992877;28;20455;-69
2021/03/29 07:52:34;;;;;;;13.83;12.73;;;12.80;91.60;;;;;;4992584;28;20486;-69
2021/03/29 07:55:02;;;;;;;14.57;13.50;;;12.90;91.50;;;;;;4993108;28;20538;-69
2021/03/29 07:58:01;;;;;;;13.10;12.30;;;13.00;91.70;;;;;;4993150;28;20447;-70
2021/03/29 08:00:40;;;;;;;13.43;12.57;;;13.20;91.00;;;;;;4992870;28;21011;-70
2021/03/29 08:03:38;;;;;;;12.87;12.17;;;13.40;90.50;;;;;;4992399;28;20438;-71
2021/03/29 08:06:04;;;;;;;13.27;12.27;;;13.80;90.00;;;;;;4992588;28;20532;-70
2021/03/29 08:08:41;;;;;;;13.30;12.30;;;14.40;88.50;;;;;;4990067;28;20489;-70
2021/03/29 08:11:10;;;;;;;12.50;11.70;;;14.90;85.60;;;;;;4991216;28;20501;-71
2021/03/29 08:13:38;;;;;;;13.07;11.67;;;14.70;84.30;;;;;;4991609;28;20462;-71
2021/03/29 08:16:06;;;;;;;13.80;12.90;;;14.50;84.80;;;;;;4992183;28;20455;-70
2021/03/29 08:19:06;;;;;;;13.50;12.50;;;14.50;84.60;;;;;;4992053;28;20481;-70
2021/03/29 08:21:50;;;;;;;13.23;12.20;;;15.20;84.20;;;;;;4992005;28;20489;-71
2021/03/29 08:24:17;;;;;;;12.83;11.93;;;15.60;81.30;;;;;;4991799;28;20447;-71
2021/03/29 08:26:44;;;;;;;13.80;13.00;;;15.70;80.90;;;;;;4992103;28;20451;-71
2021/03/29 08:29:21;;;;;;;13.00;12.23;;;15.70;80.80;;;;;;4992221;28;20454;-71
2021/03/29 08:32:16;;;;;;;13.50;12.43;;;15.70;81.50;;;;;;4991742;28;20454;-70
2021/03/29 08:34:55;;;;;;;12.67;11.77;;;15.90;80.20;;;;;;4957501;28;20469;-70
2021/03/29 08:37:24;;;;;;;12.97;12.17;;;16.10;79.90;;;;;;4991718;28;20509;-70
2021/03/29 08:39:52;;;;;;;13.63;12.60;;;16.20;78.60;;;;;;4991771;28;20683;-70
2021/03/29 08:42:20;;;;;;;12.27;11.43;;;16.60;77.70;;;;;;4991513;28;20451;-70
2021/03/29 08:44:49;;;;;;;13.17;12.27;;;16.50;77.20;;;;;;4991555;28;20443;-70
2021/03/29 08:47:17;;;;;;;12.17;11.47;;;16.60;77.40;;;;;;4991170;28;20898;-70
2021/03/29 08:49:45;;;;;;;12.47;11.73;;;17.20;75.70;;;;;;4991607;28;20949;-71
2021/03/29 08:52:12;;;;;;;12.87;12.17;;;17.20;74.00;;;;;;4991620;28;20473;-71
2021/03/29 08:54:55;;;;;;;14.80;13.27;;;17.20;73.70;;;;;;4991559;28;20450;-70
2021/03/29 08:57:26;;;;;;;13.27;12.37;;;17.50;73.50;;;;;;4991435;28;20513;-71
2021/03/29 08:59:59;;;;;;;13.90;12.67;;;17.50;73.10;;;;;;4991036;28;21112;-70
2021/03/29 09:02:26;;;;;;;13.23;12.33;;;17.90;71.70;;;;;;4991368;28;20586;-70
2021/03/29 09:04:56;;;;;;;14.03;13.30;;;18.10;71.20;;;;;;4991238;28;20458;-70
2021/03/29 09:07:29;;;;;;;15.50;14.50;;;18.30;71.10;;;;;;4990935;28;21002;-71
2021/03/29 09:09:56;;;;;;;14.50;13.40;;;18.70;70.80;;;;;;4991023;28;20475;-72
2021/03/29 09:12:24;;;;;;;14.43;13.53;;;19.40;67.60;;;;;;4990401;28;20508;-71
2021/03/29 09:14:51;;;;;;;14.50;13.20;;;19.70;67.30;;;;;;4990925;28;20486;-71
2021/03/29 09:17:29;;;;;;;13.50;12.80;;;19.60;65.40;;;;;;4990827;28;20513;-71
2021/03/29 09:19:56;;;;;;;12.83;11.90;;;19.50;65.60;;;;;;4991486;28;20803;-71
2021/03/29 09:22:34;;;;;;;13.43;12.73;;;19.50;65.80;;;;;;4990909;28;20447;-71
2021/03/29 09:25:01;;;;;;;13.07;12.20;;;19.70;65.60;;;;;;4989792;28;20465;-71
2021/03/29 09:27:31;;;;;;;13.17;12.47;;;19.60;64.90;;;;;;4990721;28;20573;-71
2021/03/29 09:29:59;;;;;;;14.40;13.40;;;19.90;63.90;;;;;;4991006;28;20533;-71
2021/03/29 09:32:27;;;;;;;12.97;12.17;;;20.30;63.40;;;;;;4990779;28;20507;-71
2021/03/29 09:34:54;;;;;;;13.20;12.50;;;20.30;61.80;;;;;;4990784;28;20493;-72
2021/03/29 09:37:24;;;;;;;14.57;13.67;;;20.60;60.90;;;;;;4990540;28;20447;-72
2021/03/29 09:39:57;;;;;;;13.80;12.80;;;21.10;60.10;;;;;;4990719;28;20458;-71
2021/03/29 09:42:38;;;;;;;15.30;14.40;;;21.10;59.50;;;;;;4990552;28;20513;-72
2021/03/29 09:45:06;;;;;;;14.87;13.67;;;21.10;59.80;;;;;;4990920;28;20439;-71
2021/03/29 09:47:33;;;;;;;14.07;13.07;;;21.40;58.70;;;;;;4990390;28;20493;-70
2021/03/29 09:50:00;;;;;;;13.73;12.90;;;21.50;58.10;;;;;;4990784;28;20802;-71
2021/03/29 09:52:41;;;;;;;13.00;12.30;;;21.50;57.60;;;;;;4990574;28;20466;-71
2021/03/29 09:55:09;;;;;;;12.20;11.43;;;21.30;57.70;;;;;;4990547;28;20454;-71
2021/03/29 09:57:40;;;;;;;13.17;12.47;;;21.80;56.40;;;;;;4990436;28;20490;-71
2021/03/29 10:00:15;;;;;;;12.57;11.97;;;22.00;56.10;;;;;;4990310;28;20458;-71
2021/03/29 10:02:42;;;;;;;12.53;11.80;;;22.10;54.80;;;;;;4991221;28;20461;-71
2021/03/29 10:05:10;;;;;;;13.20;12.50;;;22.20;54.70;;;;;;4990428;28;20795;-71
2021/03/29 10:07:48;;;;;;;13.13;12.13;;;22.30;54.10;;;;;;4990213;28;21007;-71
2021/03/29 10:10:22;;;;;;;14.23;12.87;;;22.80;52.90;;;;;;4990359;28;20486;-71
2021/03/29 10:12:48;;;;;;;14.00;12.90;;;23.20;52.20;;;;;;4990408;28;20574;-71
2021/03/29 10:15:15;;;;;;;14.10;13.20;;;23.30;51.60;;;;;;4990685;28;20447;-71
2021/03/29 10:17:42;;;;;;;13.20;12.50;;;24.10;51.00;;;;;;4990615;28;20458;-72
2021/03/29 10:20:10;;;;;;;13.30;12.43;;;24.60;48.00;;;;;;4990453;28;20447;-72
2021/03/29 10:22:37;;;;;;;13.33;12.63;;;24.10;48.30;;;;;;4990343;28;20455;-72
2021/03/29 10:25:07;;;;;;;12.70;12.10;;;23.90;48.90;;;;;;4990192;28;21027;-72
2021/03/29 10:27:43;;;;;;;13.07;12.37;;;24.20;48.80;;;;;;4990143;28;20483;-72
2021/03/29 10:30:20;;;;;;;12.50;11.80;;;25.60;46.50;;;;;;4990674;28;20431;-72
2021/03/29 10:32:48;;;;;;;13.63;13.03;;;26.10;45.10;;;;;;4990224;28;20431;-72
2021/03/29 10:35:15;;;;;;;13.57;12.87;;;27.00;42.70;;;;;;4990535;28;20447;-72
2021/03/29 10:37:41;;;;;;;14.07;13.27;;;27.60;41.60;;;;;;4994331;28;20544;-71
2021/03/29 10:40:08;;;;;;;13.83;12.90;;;27.60;40.60;;;;;;4994114;28;20936;-72
2021/03/29 10:42:36;;;;;;;13.70;13.00;;;27.00;40.70;;;;;;4993629;28;20458;-72
2021/03/29 10:45:04;;;;;;;14.10;13.30;;;27.30;40.30;;;;;;4994040;28;20446;-72
2021/03/29 10:47:30;;;;;;;13.37;12.50;;;26.80;40.40;;;;;;4994025;28;20455;-71
2021/03/29 10:49:57;;;;;;;13.33;12.43;;;27.20;39.70;;;;;;4994028;28;20505;-70
2021/03/29 10:52:24;;;;;;;13.90;13.10;;;27.70;38.60;;;;;;4993856;28;20450;-71
2021/03/29 10:54:51;;;;;;;13.40;12.43;;;27.50;38.00;;;;;;4993696;28;20450;-70
2021/03/29 10:57:18;;;;;;;14.63;13.77;;;27.90;38.10;;;;;;4993507;28;20806;-70
2021/03/29 10:59:44;;;;;;;14.00;13.30;;;28.50;37.30;;;;;;4993859;28;20466;-69
2021/03/29 11:02:10;;;;;;;14.20;13.53;;;29.00;36.20;;;;;;4993989;28;20527;-69
2021/03/29 11:04:37;;;;;;;13.37;12.67;;;30.20;34.90;;;;;;4993454;28;20955;-69
2021/03/29 11:07:04;;;;;;;13.73;12.93;;;29.60;34.20;;;;;;4993194;28;20447;-69
2021/03/29 11:09:30;;;;;;;13.17;12.47;;;29.10;34.60;;;;;;4993260;28;20509;-69
2021/03/29 11:11:56;;;;;;;14.43;13.83;;;29.60;33.80;;;;;;4993369;28;20482;-70
2021/03/29 11:14:23;;;;;;;13.80;12.80;;;29.60;32.80;;;;;;4993386;28;20455;-71
2021/03/29 11:16:51;;;;;;;14.33;13.63;;;28.80;33.90;;;;;;4992850;28;21000;-71
2021/03/29 11:19:18;;;;;;;14.00;13.03;;;28.80;33.40;;;;;;4993175;28;20541;-71
2021/03/29 11:21:44;;;;;;;13.77;13.17;;;29.60;33.10;;;;;;4993195;28;20446;-69
2021/03/29 11:24:12;;;;;;;13.90;13.10;;;29.30;32.80;;;;;;4993489;28;20450;-72
2021/03/29 11:26:38;;;;;;;14.43;13.23;;;29.70;32.20;;;;;;4992853;28;20451;-69
2021/03/29 11:29:05;;;;;;;13.60;12.90;;;28.90;33.10;;;;;;4993119;28;20439;-70
2021/03/29 11:31:31;;;;;;;14.43;13.60;;;29.20;32.70;;;;;;4992517;28;20447;-69
2021/03/29 11:33:57;;;;;;;14.17;13.37;;;29.30;31.80;;;;;;4992980;28;20455;-69
2021/03/29 11:36:23;;;;;;;14.17;13.47;;;29.60;32.20;;;;;;4992245;28;20944;-70
2021/03/29 11:38:50;;;;;;;14.40;13.60;;;29.80;31.40;;;;;;4992309;28;20564;-70
2021/03/29 11:41:19;;;;;;;14.50;13.90;;;29.80;31.20;;;;;;4992095;28;20466;-69
2021/03/29 11:43:46;;;;;;;13.53;12.73;;;29.80;31.30;;;;;;4992011;28;20972;-69
2021/03/29 11:46:12;;;;;;;14.70;13.80;;;30.60;30.00;;;;;;4992859;28;20451;-69
2021/03/29 11:48:38;;;;;;;13.87;13.07;;;30.80;30.10;;;;;;4991903;28;20443;-69
2021/03/29 11:51:05;;;;;;;14.50;13.60;;;29.80;29.90;;;;;;4992687;28;20458;-69
2021/03/29 11:53:31;;;;;;;13.10;12.50;;;29.00;30.00;;;;;;4992447;28;20897;-71
2021/03/29 11:55:58;;;;;;;12.93;12.33;;;28.90;30.90;;;;;;4992712;28;21003;-71
2021/03/29 11:58:25;;;;;;;12.80;12.10;;;28.70;31.50;;;;;;4992405;28;20851;-69
2021/03/29 12:00:54;;;;;;;14.07;13.07;;;29.60;30.40;;;;;;4992437;28;20451;-69
2021/03/29 12:03:27;;;;;;;13.60;12.80;;;30.60;29.10;;;;;;4992514;28;21266;-69
2021/03/29 12:05:55;;;;;;;13.77;13.00;;;30.80;28.90;;;;;;4992427;28;20975;-69
2021/03/29 12:08:30;;;;;;;13.90;13.20;;;31.60;28.40;;;;;;4992025;28;20482;-70
2021/03/29 12:13:43;;;;;;;13.77;12.90;;;30.60;28.30;;;;;;4992467;28;20472;-70
2021/03/29 12:16:10;;;;;;;14.20;13.40;;;29.20;29.50;;;;;;4992527;28;20462;-70
2021/03/29 12:18:41;;;;;;;13.67;12.97;;;28.40;30.40;;;;;;4992061;28;21008;-68
2021/03/29 12:21:10;;;;;;;13.30;12.60;;;28.20;30.60;;;;;;4991991;28;20455;-68
2021/03/29 12:23:41;;;;;;;13.43;12.73;;;29.00;30.00;;;;;;4991949;28;20971;-69
2021/03/29 12:26:08;;;;;;;14.27;13.67;;;28.30;29.70;;;;;;4992539;28;20446;-69
2021/03/29 12:28:36;;;;;;;14.20;13.60;;;29.00;29.60;;;;;;4991964;28;20451;-69
2021/03/29 12:31:04;;;;;;;12.43;11.83;;;28.90;29.70;;;;;;4991979;28;20839;-69
2021/03/29 12:33:30;;;;;;;12.83;12.10;;;29.40;29.50;;;;;;4991862;28;20455;-69
2021/03/29 12:35:57;;;;;;;14.97;14.17;;;29.80;29.20;;;;;;4992206;28;20505;-69
2021/03/29 12:38:26;;;;;;;14.27;13.60;;;30.40;28.70;;;;;;4991470;28;20497;-69
2021/03/29 12:40:56;;;;;;;12.80;12.10;;;30.00;28.60;;;;;;4991370;28;20545;-68
2021/03/29 12:43:33;;;;;;;13.80;13.13;;;29.30;29.30;;;;;;4991363;28;20486;-69
2021/03/29 12:46:01;;;;;;;14.10;13.40;;;29.20;29.20;;;;;;4992045;28;20453;-68
2021/03/29 12:48:28;;;;;;;14.47;13.57;;;28.70;29.30;;;;;;4991758;28;20530;-68
2021/03/29 12:50:58;;;;;;;13.07;12.40;;;29.10;28.80;;;;;;4991200;28;20817;-68
2021/03/29 12:53:25;;;;;;;13.50;12.70;;;29.10;29.10;;;;;;4991487;28;20955;-68
2021/03/29 12:55:51;;;;;;;12.97;12.40;;;29.50;28.50;;;;;;4991126;28;21016;-68
2021/03/29 12:58:18;;;;;;;13.87;13.17;;;29.40;28.90;;;;;;4990865;28;20509;-68
2021/03/29 13:00:45;;;;;;;13.90;13.30;;;29.60;28.50;;;;;;4991180;28;20486;-69
2021/03/29 13:03:13;;;;;;;13.23;12.67;;;30.50;27.80;;;;;;4990680;28;20545;-70
2021/03/29 13:05:47;;;;;;;12.37;11.77;;;30.60;27.40;;;;;;4991032;28;20489;-70
2021/03/29 13:08:20;;;;;;;13.60;12.90;;;30.50;27.30;;;;;;4986400;28;20488;-70
2021/03/29 13:13:37;;;;;;;13.83;13.20;;;30.20;27.30;;;;;;4990981;28;20519;-70
2021/03/29 13:16:04;;;;;;;14.43;13.83;;;28.80;28.30;;;;;;4991135;28;20452;-70
2021/03/29 13:18:30;;;;;;;12.90;12.40;;;28.00;28.90;;;;;;4991243;28;20495;-69
2021/03/29 13:20:57;;;;;;;12.83;12.23;;;28.00;29.00;;;;;;4991132;28;20979;-70
2021/03/29 13:23:24;;;;;;;12.60;11.90;;;27.30;28.70;;;;;;4991023;28;20459;-69
2021/03/29 13:25:51;;;;;;;13.27;12.33;;;26.40;29.80;;;;;;4990854;28;20451;-70
2021/03/29 13:28:18;;;;;;;13.10;12.30;;;25.90;29.60;;;;;;4990806;28;20998;-70
2021/03/29 13:30:44;;;;;;;12.50;12.00;;;26.70;29.20;;;;;;4990987;28;20539;-69
2021/03/29 13:33:10;;;;;;;11.67;11.27;;;27.60;28.40;;;;;;4991144;28;20835;-69
2021/03/29 13:35:39;;;;;;;13.23;12.53;;;27.50;28.50;;;;;;4991083;28;20455;-69
2021/03/29 13:38:07;;;;;;;15.07;14.03;;;28.20;28.20;;;;;;4990740;28;20482;-69
2021/03/29 13:40:33;;;;;;;12.80;12.10;;;28.00;28.50;;;;;;4990961;28;20601;-70
2021/03/29 13:43:02;;;;;;;12.00;11.10;;;28.70;28.30;;;;;;4990859;28;20451;-69
2021/03/29 13:45:29;;;;;;;13.53;12.83;;;28.90;27.80;;;;;;4990809;28;20466;-69
2021/03/29 13:47:57;;;;;;;13.43;12.73;;;28.90;27.60;;;;;;4990895;28;20463;-69
2021/03/29 13:50:25;;;;;;;13.23;12.17;;;28.90;27.40;;;;;;4990739;28;20509;-69
2021/03/29 13:52:52;;;;;;;13.27;12.60;;;28.80;27.60;;;;;;4989861;28;20465;-69
2021/03/29 13:55:20;;;;;;;12.37;11.77;;;28.60;28.00;;;;;;4988418;28;20455;-69
2021/03/29 13:57:50;;;;;;;12.27;11.60;;;29.20;27.40;;;;;;4988378;28;20857;-69
2021/03/29 14:00:17;;;;;;;12.60;12.00;;;28.40;27.70;;;;;;4989211;28;20814;-69
2021/03/29 14:02:44;;;;;;;12.10;11.50;;;28.20;28.10;;;;;;4988598;28;20475;-70
2021/03/29 14:05:12;;;;;;;13.40;12.63;;;27.70;28.40;;;;;;4990763;28;20462;-70
2021/03/29 14:07:39;;;;;;;12.53;11.90;;;27.60;28.50;;;;;;4989992;28;20447;-70
2021/03/29 14:10:08;;;;;;;12.00;11.20;;;27.00;28.60;;;;;;4973792;28;20528;-70
2021/03/29 14:12:35;;;;;;;12.07;11.47;;;26.60;29.10;;;;;;4993421;28;20525;-70
2021/03/29 14:15:01;;;;;;;13.10;12.20;;;26.40;29.10;;;;;;4993613;28;20446;-70
2021/03/29 14:17:27;;;;;;;13.07;12.20;;;25.80;29.50;;;;;;4994308;28;20446;-70
2021/03/29 14:19:54;;;;;;;12.57;11.80;;;25.30;30.00;;;;;;4993692;28;20451;-70
2021/03/29 14:22:22;;;;;;;11.87;11.30;;;24.50;31.00;;;;;;4994267;28;20823;-69
2021/03/29 14:24:48;;;;;;;11.93;11.13;;;23.90;31.80;;;;;;4993701;28;20461;-69
2021/03/29 14:27:15;;;;;;;11.17;10.57;;;23.50;32.10;;;;;;4994082;28;20886;-70
2021/03/29 14:29:42;;;;;;;10.97;10.47;;;23.10;32.50;;;;;;4993945;28;20459;-69
2021/03/29 14:32:11;;;;;;;11.20;10.23;;;23.00;32.90;;;;;;4994080;28;20453;-69
2021/03/29 14:34:39;;;;;;;11.77;11.20;;;22.90;33.20;;;;;;4993851;28;20515;-70
2021/03/29 14:37:15;;;;;;;12.23;11.53;;;22.60;33.30;;;;;;4993748;28;20450;-70
2021/03/29 14:39:47;;;;;;;11.50;10.90;;;22.50;33.50;;;;;;4993699;28;20497;-69
2021/03/29 14:42:18;;;;;;;11.50;10.63;;;22.40;33.60;;;;;;4993845;28;20498;-69
2021/03/29 14:44:45;;;;;;;11.67;11.10;;;22.20;33.80;;;;;;4993616;28;20450;-69
2021/03/29 14:47:13;;;;;;;11.30;10.80;;;21.90;33.90;;;;;;4993806;28;20482;-68
2021/03/29 14:49:40;;;;;;;11.47;10.80;;;22.00;34.70;;;;;;4993629;28;20485;-69
2021/03/29 14:52:09;;;;;;;11.50;10.80;;;22.20;34.60;;;;;;4993570;28;20490;-69
2021/03/29 14:54:38;;;;;;;12.37;11.57;;;22.20;34.20;;;;;;4993798;28;20458;-69
2021/03/29 14:57:05;;;;;;;13.13;12.23;;;22.40;34.60;;;;;;4993105;28;20457;-69
2021/03/29 14:59:39;;;;;;;14.53;13.30;;;22.50;34.50;;;;;;4993735;28;20499;-69
2021/03/29 15:02:06;;;;;;;11.70;11.10;;;22.60;34.40;;;;;;4992238;28;20505;-69
2021/03/29 15:04:40;;;;;;;11.80;11.17;;;22.60;34.80;;;;;;4991827;28;20489;-69
2021/03/29 15:07:11;;;;;;;13.40;12.53;;;22.70;34.60;;;;;;4994089;28;20466;-69
2021/03/29 15:09:39;;;;;;;12.33;10.83;;;22.70;34.80;;;;;;4993706;28;20505;-69
2021/03/29 15:12:07;;;;;;;12.50;11.67;;;22.70;35.20;;;;;;4993961;28;20716;-69
2021/03/29 15:14:33;;;;;;;12.63;11.67;;;22.80;35.40;;;;;;4991823;28;20810;-68
2021/03/29 15:16:59;;;;;;;12.47;11.77;;;22.80;34.70;;;;;;4994190;28;20738;-69
2021/03/29 15:19:26;;;;;;;12.47;11.87;;;22.70;34.70;;;;;;4994016;28;20851;-69
2021/03/29 15:21:52;;;;;;;12.57;11.47;;;22.70;35.00;;;;;;4993923;28;20447;-69
2021/03/29 15:24:19;;;;;;;12.00;11.40;;;22.60;35.30;;;;;;4993923;28;20454;-69
2021/03/29 15:26:46;;;;;;;12.00;11.50;;;22.50;35.00;;;;;;4993858;28;20474;-69
2021/03/29 15:29:13;;;;;;;11.97;11.17;;;22.40;35.30;;;;;;4994324;28;20864;-69
2021/03/29 15:31:40;;;;;;;12.27;11.17;;;22.20;35.40;;;;;;4993721;28;20447;-69
2021/03/29 15:34:07;;;;;;;11.63;11.23;;;22.10;35.40;;;;;;4993629;28;20928;-70
2021/03/29 15:36:34;;;;;;;12.60;11.80;;;21.90;36.00;;;;;;4993561;28;20739;-69
2021/03/29 15:39:00;;;;;;;12.77;11.97;;;21.80;36.30;;;;;;4993181;28;20498;-69
2021/03/29 15:41:27;;;;;;;12.27;11.20;;;21.60;36.20;;;;;;4993774;28;20454;-69
2021/03/29 15:43:56;;;;;;;13.50;12.80;;;21.60;36.30;;;;;;4993366;28;20458;-69
2021/03/29 15:46:22;;;;;;;12.73;12.00;;;21.60;37.00;;;;;;4993459;28;20463;-69
2021/03/29 15:48:49;;;;;;;13.30;12.50;;;21.50;36.80;;;;;;4993326;28;20443;-68
2021/03/29 15:51:15;;;;;;;12.10;11.50;;;21.40;36.80;;;;;;4993245;28;20462;-68
2021/03/29 15:53:42;;;;;;;12.00;11.20;;;21.40;36.80;;;;;;4993317;28;20447;-68
2021/03/29 15:56:08;;;;;;;11.27;10.67;;;21.40;36.90;;;;;;4993124;28;20458;-68
2021/03/29 15:58:36;;;;;;;13.23;12.30;;;21.40;36.90;;;;;;4992602;28;20537;-68
2021/03/29 16:01:04;;;;;;;12.17;11.40;;;21.40;37.00;;;;;;4992998;28;20462;-67
2021/03/29 16:03:38;;;;;;;12.80;12.03;;;21.40;36.90;;;;;;4992893;28;20455;-68
2021/03/29 16:06:04;;;;;;;12.33;11.53;;;21.30;36.80;;;;;;4993142;28;20451;-70
2021/03/29 16:08:30;;;;;;;10.40;9.80;;;21.30;37.10;;;;;;4992850;28;20481;-68
2021/03/29 16:10:57;;;;;;;10.87;10.10;;;21.30;37.20;;;;;;4992826;28;20541;-70
2021/03/29 16:13:24;;;;;;;11.10;10.50;;;21.20;37.50;;;;;;4992856;28;20454;-70
2021/03/29 16:15:50;;;;;;;11.67;10.97;;;21.20;37.50;;;;;;4992797;28;21000;-69
2021/03/29 16:18:17;;;;;;;12.23;11.63;;;21.20;37.70;;;;;;4992633;28;20483;-70